Time;durP1;ratioP1;P1;durP2;ratioP2;P2;SDS_P1;SDS_P2;PMS_P1;PMS_P2;Temp;Humidity;BMP_temperature;BMP_pressure;BME280_temperature;BME280_humidity;BME280_pressure;Samples;Min_cycle;Max_cycle;Signal;HPM_P1;HPM_P2
2023/10/31 00:01:49;;;;;;;2.67;0.93;;;11.90;89.60;;;;;;4996581;28;20865;-72
2023/10/31 00:04:15;;;;;;;1.27;0.80;;;11.90;89.50;;;;;;4989940;28;20265;-72
2023/10/31 00:06:40;;;;;;;1.23;0.80;;;11.90;89.70;;;;;;4989403;28;20206;-74
2023/10/31 00:09:06;;;;;;;0.90;0.70;;;11.90;89.70;;;;;;4992232;28;20496;-75
2023/10/31 00:11:32;;;;;;;1.90;0.70;;;11.80;89.70;;;;;;4993690;28;20520;-74
2023/10/31 00:13:57;;;;;;;1.60;0.80;;;11.80;90.00;;;;;;4992694;28;20179;-73
2023/10/31 00:16:23;;;;;;;1.87;0.80;;;11.80;90.10;;;;;;4989895;28;20611;-73
2023/10/31 00:18:49;;;;;;;1.33;1.03;;;11.80;90.10;;;;;;4990392;28;20571;-73
2023/10/31 00:21:15;;;;;;;2.20;1.00;;;11.80;90.00;;;;;;4994660;28;20187;-73
2023/10/31 00:23:44;;;;;;;1.40;0.90;;;11.80;90.10;;;;;;4993836;28;20426;-73
2023/10/31 00:26:10;;;;;;;1.13;0.70;;;11.80;90.00;;;;;;4989621;28;20230;-72
2023/10/31 00:28:36;;;;;;;0.87;0.70;;;11.80;90.00;;;;;;4993242;28;21036;-75
2023/10/31 00:31:03;;;;;;;0.93;0.70;;;11.80;89.90;;;;;;4993404;28;20170;-75
2023/10/31 00:33:29;;;;;;;1.33;0.70;;;11.80;90.00;;;;;;4993138;28;20523;-74
2023/10/31 00:35:55;;;;;;;1.60;1.00;;;11.80;90.10;;;;;;4985004;28;20496;-73
2023/10/31 00:38:20;;;;;;;1.10;0.80;;;11.80;90.10;;;;;;4996523;28;20800;-75
2023/10/31 00:40:46;;;;;;;1.47;0.83;;;11.90;90.10;;;;;;4991932;28;20182;-75
2023/10/31 00:43:12;;;;;;;0.97;0.70;;;11.80;89.90;;;;;;4992809;28;20675;-75
2023/10/31 00:45:37;;;;;;;1.60;0.80;;;11.90;89.70;;;;;;4988109;28;20217;-75
2023/10/31 00:48:03;;;;;;;3.03;0.80;;;11.90;89.50;;;;;;4992055;28;20210;-74
2023/10/31 00:50:29;;;;;;;1.10;0.80;;;11.80;88.60;;;;;;4992707;28;20182;-76
2023/10/31 00:52:54;;;;;;;1.33;0.70;;;11.90;86.60;;;;;;4996176;28;20206;-75
2023/10/31 00:55:20;;;;;;;1.00;0.53;;;12.00;85.70;;;;;;4996275;28;20193;-73
2023/10/31 00:57:46;;;;;;;1.60;0.60;;;12.00;85.20;;;;;;4992514;28;20186;-72
2023/10/31 01:00:12;;;;;;;0.90;0.60;;;12.00;85.20;;;;;;4993928;28;20198;-74
2023/10/31 01:02:37;;;;;;;1.50;0.60;;;12.00;84.90;;;;;;4990201;28;20685;-75
2023/10/31 01:05:03;;;;;;;1.07;0.70;;;12.00;85.00;;;;;;4992953;28;20568;-75
2023/10/31 01:07:29;;;;;;;2.60;0.73;;;12.00;85.30;;;;;;4990426;28;20686;-75
2023/10/31 01:09:54;;;;;;;2.20;1.37;;;12.00;84.10;;;;;;4991970;28;20198;-74
2023/10/31 01:12:20;;;;;;;1.20;0.80;;;12.00;84.10;;;;;;4992058;28;20686;-75
2023/10/31 01:14:45;;;;;;;1.37;0.80;;;11.90;84.00;;;;;;5004919;28;20183;-73
2023/10/31 01:17:11;;;;;;;1.33;0.80;;;11.90;83.40;;;;;;4987257;28;20213;-73
2023/10/31 01:19:37;;;;;;;1.10;0.70;;;11.90;83.30;;;;;;4991822;28;20963;-76
2023/10/31 01:22:02;;;;;;;1.00;0.63;;;11.80;83.30;;;;;;4992722;28;20265;-73
2023/10/31 01:24:28;;;;;;;1.93;0.57;;;11.80;83.00;;;;;;4990436;28;20244;-73
2023/10/31 01:26:53;;;;;;;2.13;0.80;;;11.70;83.00;;;;;;4986000;28;20684;-72
2023/10/31 01:29:19;;;;;;;2.40;0.70;;;11.70;83.30;;;;;;4991492;28;20183;-73
2023/10/31 01:31:45;;;;;;;3.67;0.80;;;11.60;83.30;;;;;;4991203;28;20198;-73
2023/10/31 01:34:10;;;;;;;2.10;0.70;;;11.60;83.10;;;;;;4986636;28;20190;-73
2023/10/31 01:36:36;;;;;;;2.63;0.90;;;11.60;83.10;;;;;;4986458;28;20241;-74
2023/10/31 01:39:01;;;;;;;1.20;0.80;;;11.50;83.10;;;;;;4990632;28;20676;-75
2023/10/31 01:41:27;;;;;;;1.00;0.80;;;11.50;83.40;;;;;;4983394;28;20808;-75
2023/10/31 01:43:53;;;;;;;1.57;0.63;;;11.40;83.10;;;;;;4990587;28;20574;-75
2023/10/31 01:46:18;;;;;;;2.03;0.90;;;11.40;83.10;;;;;;4985511;28;20699;-74
2023/10/31 01:48:44;;;;;;;1.93;0.70;;;11.40;83.30;;;;;;4991033;28;20221;-73
2023/10/31 01:51:10;;;;;;;2.37;0.73;;;11.40;83.00;;;;;;4986273;28;20181;-72
2023/10/31 01:53:36;;;;;;;3.37;0.80;;;11.40;83.10;;;;;;4987824;28;20225;-74
2023/10/31 01:56:04;;;;;;;1.00;0.70;;;11.30;83.10;;;;;;4987052;28;20452;-73
2023/10/31 01:58:34;;;;;;;1.00;0.70;;;11.30;83.00;;;;;;4992622;28;20456;-74
2023/10/31 02:01:00;;;;;;;2.43;0.90;;;11.30;83.10;;;;;;4991879;28;20520;-73
2023/10/31 02:03:27;;;;;;;1.67;0.90;;;11.30;83.30;;;;;;4991199;28;20461;-75
2023/10/31 02:05:53;;;;;;;5.07;0.90;;;11.30;84.00;;;;;;4988527;28;20547;-74
2023/10/31 02:08:19;;;;;;;1.10;0.87;;;11.20;84.30;;;;;;4990554;28;20478;-76
2023/10/31 02:10:45;;;;;;;2.03;0.90;;;11.20;84.60;;;;;;4990450;28;20426;-74
2023/10/31 02:13:14;;;;;;;1.40;0.90;;;11.10;84.90;;;;;;4989794;28;20655;-74
2023/10/31 02:15:40;;;;;;;2.70;0.90;;;11.10;84.90;;;;;;4987171;28;20794;-73
2023/10/31 02:18:07;;;;;;;1.10;0.80;;;11.20;84.70;;;;;;4996486;28;20560;-75
2023/10/31 02:20:33;;;;;;;1.07;0.90;;;11.10;84.10;;;;;;4988418;28;20182;-74
2023/10/31 02:22:58;;;;;;;1.03;0.70;;;11.10;84.10;;;;;;4991364;28;20429;-72
2023/10/31 02:25:24;;;;;;;2.50;0.80;;;11.10;84.10;;;;;;4990525;28;20206;-70
2023/10/31 02:27:50;;;;;;;3.27;1.00;;;11.20;83.70;;;;;;4986522;28;20773;-71
2023/10/31 02:30:15;;;;;;;1.33;0.93;;;11.20;83.70;;;;;;4993183;28;20187;-71
2023/10/31 02:32:41;;;;;;;1.30;0.70;;;11.20;83.80;;;;;;4991257;28;20281;-72
2023/10/31 02:35:08;;;;;;;0.80;0.70;;;11.20;83.70;;;;;;4990590;28;20182;-71
2023/10/31 02:37:34;;;;;;;1.60;0.97;;;11.20;84.10;;;;;;4987317;28;20503;-72
2023/10/31 02:40:00;;;;;;;2.20;0.80;;;11.30;84.10;;;;;;4983192;28;20938;-72
2023/10/31 02:42:26;;;;;;;1.10;0.70;;;11.30;84.10;;;;;;4991838;28;20418;-72
2023/10/31 02:44:51;;;;;;;2.30;0.80;;;11.20;84.10;;;;;;4990224;28;20480;-71
2023/10/31 02:47:17;;;;;;;1.53;0.80;;;11.20;84.30;;;;;;4980853;28;20481;-72
2023/10/31 02:49:43;;;;;;;2.00;0.80;;;11.20;84.60;;;;;;4991139;28;20543;-71
2023/10/31 02:52:09;;;;;;;3.43;0.90;;;11.30;84.70;;;;;;4991572;28;20210;-72
2023/10/31 02:54:34;;;;;;;3.53;1.07;;;11.30;84.90;;;;;;4990447;28;20221;-74
2023/10/31 02:57:00;;;;;;;1.33;1.10;;;11.20;85.50;;;;;;4987205;28;20242;-73
2023/10/31 02:59:25;;;;;;;1.00;0.60;;;11.10;86.00;;;;;;4992091;28;20693;-72
2023/10/31 03:01:52;;;;;;;1.70;1.00;;;10.90;86.60;;;;;;4994540;28;20209;-73
2023/10/31 03:04:18;;;;;;;2.77;1.00;;;10.90;86.80;;;;;;4989976;28;20186;-74
2023/10/31 03:06:43;;;;;;;2.60;1.00;;;10.80;86.80;;;;;;4982125;28;20906;-75
2023/10/31 03:09:09;;;;;;;1.37;0.90;;;10.80;87.00;;;;;;4989706;28;20198;-72
2023/10/31 03:11:35;;;;;;;3.07;1.03;;;10.80;87.10;;;;;;4989274;28;20217;-72
2023/10/31 03:14:01;;;;;;;2.30;0.97;;;10.70;87.10;;;;;;4987244;28;20205;-74
2023/10/31 03:16:26;;;;;;;2.17;1.10;;;10.80;87.10;;;;;;4987572;28;20210;-74
2023/10/31 03:18:53;;;;;;;1.20;0.90;;;10.90;87.30;;;;;;4989620;28;20467;-73
2023/10/31 03:21:18;;;;;;;1.47;1.07;;;10.90;87.00;;;;;;4988437;28;20194;-75
2023/10/31 03:23:48;;;;;;;1.87;0.90;;;10.90;86.90;;;;;;4989680;28;20436;-73
2023/10/31 03:26:14;;;;;;;2.40;1.27;;;10.90;86.60;;;;;;4982255;28;20442;-74
2023/10/31 03:28:40;;;;;;;2.37;0.90;;;10.90;86.60;;;;;;4984145;28;20510;-75
2023/10/31 03:31:06;;;;;;;2.77;1.17;;;10.90;86.50;;;;;;4989372;28;20429;-73
2023/10/31 03:33:31;;;;;;;2.50;0.90;;;10.90;86.50;;;;;;4989915;28;20214;-73
2023/10/31 03:35:57;;;;;;;5.07;1.37;;;10.90;86.20;;;;;;4985588;28;20234;-74
2023/10/31 03:38:23;;;;;;;1.87;1.20;;;11.00;86.00;;;;;;4989011;28;20936;-73
2023/10/31 03:40:48;;;;;;;2.07;1.10;;;10.90;86.20;;;;;;4989357;28;20194;-75
2023/10/31 03:43:14;;;;;;;4.33;1.20;;;11.00;86.30;;;;;;4989898;28;20213;-75
2023/10/31 03:45:40;;;;;;;4.23;1.40;;;10.90;86.20;;;;;;4989740;28;20212;-74
2023/10/31 03:48:06;;;;;;;2.27;1.30;;;10.90;86.30;;;;;;4989831;28;20214;-75
2023/10/31 03:50:32;;;;;;;1.83;1.23;;;11.00;86.50;;;;;;4993226;28;20432;-74
2023/10/31 03:52:57;;;;;;;2.20;1.10;;;10.90;86.20;;;;;;4992404;28;20183;-74
2023/10/31 03:55:23;;;;;;;1.67;1.07;;;11.00;86.20;;;;;;4993010;28;20291;-73
2023/10/31 03:57:48;;;;;;;1.30;1.10;;;11.00;86.20;;;;;;4991445;28;20676;-76
2023/10/31 04:00:14;;;;;;;1.20;0.80;;;11.00;86.30;;;;;;4990256;28;20213;-75
2023/10/31 04:02:41;;;;;;;1.63;1.03;;;10.80;86.50;;;;;;4993285;28;20706;-74
2023/10/31 04:05:07;;;;;;;2.27;1.10;;;10.90;86.60;;;;;;4993935;28;20850;-73
2023/10/31 04:07:32;;;;;;;1.90;1.00;;;10.90;86.50;;;;;;4993398;28;20501;-74
2023/10/31 04:09:58;;;;;;;2.40;1.30;;;10.90;86.50;;;;;;4993260;28;20722;-74
2023/10/31 04:12:23;;;;;;;3.00;1.20;;;10.90;86.30;;;;;;4996062;28;20686;-74
2023/10/31 04:14:49;;;;;;;1.47;1.00;;;10.90;85.90;;;;;;4995148;28;20182;-74
2023/10/31 04:17:14;;;;;;;1.73;1.13;;;10.80;85.70;;;;;;4990221;28;20210;-73
2023/10/31 04:19:40;;;;;;;1.50;1.20;;;10.90;85.90;;;;;;4992666;28;20270;-71
2023/10/31 04:22:06;;;;;;;1.20;0.90;;;10.90;85.70;;;;;;4994601;28;20660;-72
2023/10/31 04:24:31;;;;;;;2.30;0.87;;;10.90;85.60;;;;;;4993033;28;20187;-72
2023/10/31 04:26:57;;;;;;;1.63;1.10;;;10.90;85.70;;;;;;4988275;28;20718;-72
2023/10/31 04:29:23;;;;;;;3.10;1.30;;;10.90;85.70;;;;;;4992429;28;20683;-73
2023/10/31 04:31:48;;;;;;;2.90;1.00;;;10.90;85.90;;;;;;4991952;28;20265;-73
2023/10/31 04:34:14;;;;;;;1.77;0.93;;;10.90;85.90;;;;;;4987115;28;20436;-75
2023/10/31 04:36:39;;;;;;;1.50;0.90;;;10.80;85.90;;;;;;4985173;28;20696;-72
2023/10/31 04:39:05;;;;;;;1.90;1.20;;;10.80;85.70;;;;;;4991432;28;20182;-74
2023/10/31 04:41:31;;;;;;;2.17;1.10;;;10.80;85.70;;;;;;4989508;28;20240;-73
2023/10/31 04:43:56;;;;;;;1.70;0.83;;;10.80;85.70;;;;;;4992224;28;20186;-74
2023/10/31 04:46:22;;;;;;;1.90;0.90;;;10.80;85.20;;;;;;4987586;28;20781;-74
2023/10/31 04:48:48;;;;;;;3.13;0.93;;;10.80;84.70;;;;;;4994468;28;20259;-72
2023/10/31 04:51:14;;;;;;;7.53;1.00;;;10.80;84.40;;;;;;4992689;28;20183;-74
2023/10/31 04:53:39;;;;;;;1.67;1.00;;;10.80;84.60;;;;;;4992208;28;20509;-73
2023/10/31 04:56:11;;;;;;;2.50;1.10;;;10.90;85.00;;;;;;4987710;28;20217;-75
2023/10/31 04:58:37;;;;;;;1.67;1.13;;;10.90;85.20;;;;;;4992917;28;20236;-73
2023/10/31 05:01:02;;;;;;;1.50;0.83;;;10.80;85.20;;;;;;4993028;28;20980;-72
2023/10/31 05:03:28;;;;;;;3.03;1.13;;;10.80;85.20;;;;;;4993611;28;20718;-73
2023/10/31 05:05:54;;;;;;;2.50;1.10;;;10.80;85.30;;;;;;4987224;28;20583;-73
2023/10/31 05:08:19;;;;;;;1.90;1.10;;;10.80;85.30;;;;;;4988768;28;20218;-73
2023/10/31 05:10:47;;;;;;;1.97;1.10;;;10.80;84.90;;;;;;4988322;28;20555;-73
2023/10/31 05:13:12;;;;;;;1.30;0.87;;;10.70;84.90;;;;;;4992461;28;20261;-75
2023/10/31 05:15:38;;;;;;;2.80;1.20;;;10.70;84.70;;;;;;4987285;28;20573;-73
2023/10/31 05:18:04;;;;;;;3.30;0.90;;;10.80;84.60;;;;;;4991867;28;20289;-74
2023/10/31 05:20:29;;;;;;;1.87;1.00;;;10.70;84.60;;;;;;4992746;28;20277;-74
2023/10/31 05:22:55;;;;;;;1.73;1.20;;;10.70;84.60;;;;;;4991952;28;20182;-74
2023/10/31 05:25:20;;;;;;;5.43;1.10;;;10.70;84.90;;;;;;4989446;28;20182;-74
2023/10/31 05:27:46;;;;;;;1.87;1.00;;;10.70;85.00;;;;;;4990858;28;20213;-73
2023/10/31 05:30:14;;;;;;;6.97;1.50;;;10.70;85.20;;;;;;4991435;28;20197;-73
2023/10/31 05:32:39;;;;;;;1.40;1.20;;;10.60;85.20;;;;;;4990050;28;20196;-74
2023/10/31 05:35:05;;;;;;;1.90;0.97;;;10.60;85.30;;;;;;4992130;28;20426;-73
2023/10/31 05:37:31;;;;;;;2.07;1.07;;;10.50;85.20;;;;;;4992904;28;20199;-73
2023/10/31 05:39:56;;;;;;;1.03;0.73;;;10.60;85.20;;;;;;4986000;28;20852;-74
2023/10/31 05:42:23;;;;;;;1.17;0.80;;;10.60;84.90;;;;;;4991740;28;20191;-74
2023/10/31 05:44:48;;;;;;;1.53;0.83;;;10.60;84.60;;;;;;4993159;28;20232;-73
2023/10/31 05:47:14;;;;;;;2.60;0.93;;;10.60;84.30;;;;;;4986321;28;20465;-74
2023/10/31 05:49:42;;;;;;;8.90;0.93;;;10.60;84.30;;;;;;4990299;28;20182;-73
2023/10/31 05:52:07;;;;;;;2.53;1.13;;;10.50;83.80;;;;;;4992112;28;20202;-72
2023/10/31 05:54:33;;;;;;;1.90;1.20;;;10.50;83.70;;;;;;4988520;28;20554;-74
2023/10/31 05:56:58;;;;;;;4.10;1.10;;;10.60;83.70;;;;;;4989919;28;20214;-74
2023/10/31 05:59:24;;;;;;;3.00;0.87;;;10.50;83.60;;;;;;4985793;28;20283;-73
2023/10/31 06:01:50;;;;;;;1.93;0.90;;;10.50;83.60;;;;;;4996637;28;20197;-73
2023/10/31 06:04:15;;;;;;;1.80;0.80;;;10.50;83.30;;;;;;4991235;28;20450;-72
2023/10/31 06:06:41;;;;;;;2.70;1.03;;;10.50;83.00;;;;;;4987742;28;20641;-73
2023/10/31 06:09:06;;;;;;;1.73;1.17;;;10.50;83.10;;;;;;4990861;28;20191;-74
2023/10/31 06:11:32;;;;;;;2.27;0.90;;;10.60;83.10;;;;;;4990895;28;20191;-73
2023/10/31 06:13:59;;;;;;;9.63;1.50;;;10.50;83.10;;;;;;4984406;28;20186;-75
2023/10/31 06:16:25;;;;;;;6.50;1.57;;;10.50;83.30;;;;;;4988253;28;20229;-74
2023/10/31 06:18:50;;;;;;;6.83;1.40;;;10.50;83.30;;;;;;4992579;28;20819;-72
2023/10/31 06:21:16;;;;;;;3.60;0.90;;;10.50;83.60;;;;;;4991236;28;20201;-74
2023/10/31 06:23:45;;;;;;;2.20;0.90;;;10.50;83.70;;;;;;4993877;28;20198;-73
2023/10/31 06:26:10;;;;;;;5.13;1.13;;;10.50;83.30;;;;;;4988156;28;20218;-75
2023/10/31 06:28:37;;;;;;;0.80;0.70;;;10.40;82.80;;;;;;4990921;28;20819;-71
2023/10/31 06:31:03;;;;;;;2.47;0.80;;;10.50;82.50;;;;;;4991355;28;20214;-73
2023/10/31 06:33:29;;;;;;;1.40;0.90;;;10.50;82.40;;;;;;4989335;28;20422;-73
2023/10/31 06:35:54;;;;;;;2.13;1.10;;;10.60;82.20;;;;;;4986285;28;20465;-74
2023/10/31 06:38:20;;;;;;;0.97;0.73;;;10.50;82.40;;;;;;4990072;28;20622;-74
2023/10/31 06:40:46;;;;;;;2.50;0.90;;;10.50;82.40;;;;;;4988188;28;20233;-73
2023/10/31 06:43:11;;;;;;;1.60;0.80;;;10.60;82.40;;;;;;4986714;28;20237;-74
2023/10/31 06:45:37;;;;;;;1.33;1.03;;;10.60;82.10;;;;;;4986235;28;20264;-72
2023/10/31 06:48:03;;;;;;;1.47;0.90;;;10.50;82.10;;;;;;4985993;28;20204;-73
2023/10/31 06:50:29;;;;;;;4.97;1.23;;;10.50;82.10;;;;;;4990328;28;20186;-74
2023/10/31 06:52:54;;;;;;;4.13;1.00;;;10.60;82.10;;;;;;4990427;28;20426;-73
2023/10/31 06:55:20;;;;;;;1.20;0.93;;;10.60;82.10;;;;;;4988813;28;20214;-74
2023/10/31 06:57:46;;;;;;;0.90;0.80;;;10.60;82.10;;;;;;4988537;28;20190;-75
2023/10/31 07:00:12;;;;;;;1.97;1.10;;;10.60;82.10;;;;;;4989336;28;20232;-73
2023/10/31 07:02:38;;;;;;;2.83;1.07;;;10.70;81.70;;;;;;4990583;28;20261;-74
2023/10/31 07:05:04;;;;;;;1.23;0.90;;;10.70;81.80;;;;;;4990623;28;20867;-71
2023/10/31 07:07:30;;;;;;;1.53;0.83;;;10.70;81.50;;;;;;4988229;28;20206;-73
2023/10/31 07:09:55;;;;;;;1.93;0.83;;;10.70;81.20;;;;;;4990310;28;20476;-74
2023/10/31 07:12:21;;;;;;;1.47;1.00;;;10.70;81.10;;;;;;4992137;28;20182;-74
2023/10/31 07:14:47;;;;;;;1.93;0.80;;;10.70;81.10;;;;;;4992436;28;20586;-74
2023/10/31 07:17:13;;;;;;;1.67;1.27;;;10.70;80.30;;;;;;4990412;28;20457;-74
2023/10/31 07:19:38;;;;;;;0.70;0.60;;;10.80;80.00;;;;;;4991939;28;20428;-74
2023/10/31 07:22:04;;;;;;;1.57;0.83;;;10.90;79.00;;;;;;4992873;28;20193;-74
2023/10/31 07:24:29;;;;;;;2.33;1.17;;;10.90;79.00;;;;;;4993833;28;20714;-74
2023/10/31 07:26:55;;;;;;;1.73;1.00;;;11.00;79.20;;;;;;4985697;28;20532;-72
2023/10/31 07:29:21;;;;;;;1.80;1.20;;;11.00;79.30;;;;;;4993852;28;20197;-73
2023/10/31 07:31:46;;;;;;;2.03;1.10;;;11.00;79.20;;;;;;4993991;28;20187;-74
2023/10/31 07:34:12;;;;;;;2.50;1.03;;;11.00;79.50;;;;;;4990381;28;20190;-74
2023/10/31 07:36:39;;;;;;;2.50;1.27;;;11.00;79.20;;;;;;4988578;28;20285;-73
2023/10/31 07:39:04;;;;;;;2.50;1.07;;;11.00;79.50;;;;;;4992698;28;20659;-75
2023/10/31 07:41:30;;;;;;;4.40;1.20;;;11.00;79.60;;;;;;4993518;28;20422;-75
2023/10/31 07:43:56;;;;;;;1.30;1.00;;;11.00;79.90;;;;;;4994662;28;20188;-74
2023/10/31 07:46:23;;;;;;;5.33;1.37;;;10.90;80.30;;;;;;4989451;28;20265;-72
2023/10/31 07:48:49;;;;;;;5.70;1.10;;;11.00;80.50;;;;;;4993607;28;20616;-74
2023/10/31 07:51:14;;;;;;;2.13;1.00;;;11.00;80.50;;;;;;4994347;28;20433;-73
2023/10/31 07:53:41;;;;;;;1.20;0.90;;;11.10;80.30;;;;;;4994604;28;20796;-75
2023/10/31 07:56:15;;;;;;;2.17;1.13;;;11.10;80.30;;;;;;4988693;28;20213;-76
2023/10/31 07:58:41;;;;;;;3.07;1.00;;;11.20;80.30;;;;;;4994747;28;20437;-75
2023/10/31 08:01:10;;;;;;;3.47;0.90;;;11.30;80.20;;;;;;4993415;28;20422;-74
2023/10/31 08:03:38;;;;;;;9.03;1.20;;;11.30;79.50;;;;;;4993667;28;20206;-73
2023/10/31 08:06:06;;;;;;;4.73;1.20;;;11.30;79.20;;;;;;4987132;28;20551;-74
2023/10/31 08:08:33;;;;;;;4.43;1.43;;;11.40;79.00;;;;;;4993415;28;20480;-73
2023/10/31 08:10:58;;;;;;;1.57;1.10;;;11.40;79.00;;;;;;4993246;28;20426;-74
2023/10/31 08:13:24;;;;;;;1.53;1.00;;;11.40;79.60;;;;;;4993200;28;20648;-74
2023/10/31 08:15:50;;;;;;;2.10;1.00;;;11.40;79.30;;;;;;4993121;28;20457;-73
2023/10/31 08:18:15;;;;;;;3.63;1.50;;;11.40;79.50;;;;;;4993068;28;20225;-73
2023/10/31 08:20:43;;;;;;;1.40;1.10;;;11.40;79.30;;;;;;4993061;28;20190;-75
2023/10/31 08:23:08;;;;;;;3.00;1.10;;;11.40;79.50;;;;;;4992832;28;20646;-74
2023/10/31 08:25:34;;;;;;;2.93;1.13;;;11.40;79.60;;;;;;4987412;28;20500;-73
2023/10/31 08:28:00;;;;;;;1.80;0.90;;;11.50;80.00;;;;;;4990800;28;20205;-74
2023/10/31 08:30:25;;;;;;;2.07;1.17;;;11.50;79.70;;;;;;4993854;28;20185;-73
2023/10/31 08:32:51;;;;;;;2.50;1.50;;;11.50;79.90;;;;;;4994572;28;20175;-74
2023/10/31 08:35:17;;;;;;;5.90;1.50;;;11.60;79.90;;;;;;4991924;28;20225;-74
2023/10/31 08:37:43;;;;;;;2.60;1.10;;;11.70;79.60;;;;;;4993167;28;20559;-74
2023/10/31 08:40:09;;;;;;;3.50;1.37;;;11.70;79.30;;;;;;4991833;28;20426;-74
2023/10/31 08:42:34;;;;;;;2.43;1.03;;;11.70;79.70;;;;;;4997716;28;20187;-75
2023/10/31 08:45:00;;;;;;;5.30;1.30;;;11.70;79.70;;;;;;4998323;28;20480;-72
2023/10/31 08:47:26;;;;;;;1.17;0.80;;;11.80;79.50;;;;;;4997215;28;20707;-73
2023/10/31 08:49:51;;;;;;;5.40;1.03;;;11.80;79.20;;;;;;5001821;28;20589;-74
2023/10/31 08:52:17;;;;;;;2.60;1.03;;;11.80;79.20;;;;;;4999856;28;20647;-74
2023/10/31 08:54:43;;;;;;;4.40;1.20;;;11.80;78.90;;;;;;4995449;28;20193;-73
2023/10/31 08:57:09;;;;;;;1.97;1.00;;;11.80;78.60;;;;;;4989018;28;20494;-75
2023/10/31 08:59:35;;;;;;;4.67;1.07;;;11.80;78.60;;;;;;4990863;28;20894;-72
2023/10/31 09:02:01;;;;;;;7.40;1.70;;;11.80;78.60;;;;;;4994218;28;20241;-74
2023/10/31 09:04:27;;;;;;;1.97;0.90;;;11.90;78.30;;;;;;4994326;28;20425;-74
2023/10/31 09:06:52;;;;;;;8.80;1.40;;;12.00;78.00;;;;;;4990939;28;20475;-73
2023/10/31 09:09:18;;;;;;;6.20;1.20;;;12.10;77.80;;;;;;4997298;28;20253;-74
2023/10/31 09:11:43;;;;;;;2.67;1.17;;;12.10;77.30;;;;;;4997481;28;20186;-72
2023/10/31 09:14:09;;;;;;;5.03;1.00;;;12.10;77.70;;;;;;4987191;28;20190;-74
2023/10/31 09:16:35;;;;;;;1.60;1.00;;;12.20;77.30;;;;;;4988637;28;20278;-75
2023/10/31 09:19:00;;;;;;;2.07;1.10;;;12.10;77.10;;;;;;4996216;28;20193;-73
2023/10/31 09:21:26;;;;;;;9.23;1.20;;;12.20;77.10;;;;;;4993067;28;20187;-74
2023/10/31 09:23:51;;;;;;;5.60;1.20;;;12.30;76.40;;;;;;4988537;28;20374;-75
2023/10/31 09:26:17;;;;;;;2.90;0.90;;;12.30;76.20;;;;;;4987605;28;20701;-73
2023/10/31 09:28:49;;;;;;;2.60;1.20;;;12.30;76.20;;;;;;4992027;28;20241;-74
2023/10/31 09:31:16;;;;;;;2.17;1.10;;;12.30;76.20;;;;;;4992471;28;20981;-74
2023/10/31 09:33:42;;;;;;;1.83;1.07;;;12.30;76.10;;;;;;4992625;28;20467;-76
2023/10/31 09:36:08;;;;;;;2.57;0.97;;;12.40;75.90;;;;;;4988330;28;21021;-73
2023/10/31 09:38:33;;;;;;;2.10;1.50;;;12.30;75.90;;;;;;4991910;28;20191;-74
2023/10/31 09:40:59;;;;;;;4.23;1.40;;;12.30;76.20;;;;;;4987870;28;20571;-76
2023/10/31 09:43:24;;;;;;;6.80;1.80;;;12.30;76.50;;;;;;4992175;28;20197;-74
2023/10/31 09:45:51;;;;;;;2.40;1.30;;;12.30;76.10;;;;;;4989035;28;20229;-78
2023/10/31 09:48:18;;;;;;;8.03;1.43;;;12.30;76.10;;;;;;4993900;28;20214;-72
2023/10/31 09:50:46;;;;;;;3.43;2.13;;;12.40;76.10;;;;;;4994309;28;20444;-77
2023/10/31 09:53:14;;;;;;;3.10;1.30;;;12.50;75.70;;;;;;4996629;28;20430;-78
2023/10/31 09:55:39;;;;;;;5.40;2.17;;;12.50;75.50;;;;;;4993240;28;20461;-77
2023/10/31 09:58:05;;;;;;;5.80;1.40;;;12.60;74.90;;;;;;4997080;28;21015;-77
2023/10/31 10:00:30;;;;;;;4.77;1.37;;;12.60;74.50;;;;;;4995864;28;20246;-78
2023/10/31 10:02:57;;;;;;;2.87;1.20;;;12.70;74.80;;;;;;4995394;28;20210;-77
2023/10/31 10:05:24;;;;;;;3.83;1.27;;;12.80;75.10;;;;;;4994526;28;20194;-76
2023/10/31 10:07:50;;;;;;;3.30;1.50;;;12.70;75.20;;;;;;4997060;28;20872;-76
2023/10/31 10:10:16;;;;;;;4.20;1.30;;;12.80;75.50;;;;;;5002217;28;20417;-76
2023/10/31 10:12:43;;;;;;;4.80;1.50;;;12.90;75.20;;;;;;5000243;28;20187;-77
2023/10/31 10:15:11;;;;;;;2.77;1.40;;;12.90;75.40;;;;;;5006001;28;20771;-76
2023/10/31 10:17:39;;;;;;;2.60;1.33;;;13.00;74.90;;;;;;5001491;28;20497;-77
2023/10/31 10:20:06;;;;;;;4.73;1.60;;;13.00;74.90;;;;;;4999060;28;20442;-76
2023/10/31 10:22:32;;;;;;;6.90;1.63;;;13.00;75.10;;;;;;4994528;28;20798;-77
2023/10/31 10:24:57;;;;;;;3.93;1.20;;;12.90;74.90;;;;;;4992614;28;20442;-78
2023/10/31 10:27:23;;;;;;;4.10;1.10;;;12.80;75.50;;;;;;4991377;28;20214;-77
2023/10/31 10:29:53;;;;;;;2.87;1.40;;;12.80;75.90;;;;;;4994090;28;20846;-78
2023/10/31 10:32:18;;;;;;;4.80;1.47;;;12.90;75.90;;;;;;4990777;28;20198;-78
2023/10/31 10:34:45;;;;;;;4.67;1.50;;;12.80;75.90;;;;;;4995476;28;20434;-80
2023/10/31 10:37:12;;;;;;;3.43;1.60;;;12.70;76.20;;;;;;4991288;28;20314;-78
2023/10/31 10:39:40;;;;;;;3.70;1.60;;;12.70;76.80;;;;;;4990032;28;20491;-76
2023/10/31 10:42:10;;;;;;;4.10;1.50;;;12.70;76.80;;;;;;4994861;28;21279;-77
2023/10/31 10:44:38;;;;;;;3.97;1.37;;;12.70;76.40;;;;;;4996298;28;20453;-75
2023/10/31 10:47:06;;;;;;;3.97;1.27;;;12.70;76.20;;;;;;4985056;28;20489;-76
2023/10/31 10:49:36;;;;;;;3.13;1.60;;;12.80;76.10;;;;;;4990933;28;20438;-73
2023/10/31 10:52:13;;;;;;;6.60;1.93;;;12.80;75.40;;;;;;4991708;28;20433;-74
2023/10/31 10:55:08;;;;;;;4.87;1.70;;;12.80;76.20;;;;;;4985138;28;20422;-74
2023/10/31 10:58:05;;;;;;;2.60;1.20;;;12.80;75.70;;;;;;4982017;28;20450;-74
2023/10/31 11:00:31;;;;;;;3.90;1.40;;;13.00;75.70;;;;;;4987896;28;20457;-74
2023/10/31 11:02:57;;;;;;;3.20;1.30;;;13.10;75.70;;;;;;4991656;28;20481;-74
2023/10/31 11:05:26;;;;;;;2.27;1.37;;;13.20;73.70;;;;;;4989697;28;20516;-76
2023/10/31 11:07:52;;;;;;;2.77;1.00;;;13.20;74.30;;;;;;4993648;28;20887;-74
2023/10/31 11:10:18;;;;;;;4.23;1.30;;;13.30;74.30;;;;;;4996711;28;20555;-74
2023/10/31 11:12:44;;;;;;;2.40;1.20;;;13.40;74.20;;;;;;4991039;28;20930;-74
2023/10/31 11:15:14;;;;;;;2.50;1.17;;;13.40;73.70;;;;;;4993343;28;20434;-72
2023/10/31 11:17:42;;;;;;;6.97;1.93;;;13.40;73.90;;;;;;4993771;28;20772;-73
2023/10/31 11:20:10;;;;;;;4.53;1.70;;;13.40;74.20;;;;;;4987439;28;20426;-74
2023/10/31 11:22:43;;;;;;;3.03;1.20;;;13.50;74.00;;;;;;5002491;28;20434;-75
2023/10/31 11:25:12;;;;;;;8.43;1.70;;;13.50;74.50;;;;;;4987634;28;20471;-71
2023/10/31 11:27:37;;;;;;;3.30;1.43;;;13.60;74.60;;;;;;4986985;28;20482;-75
2023/10/31 11:30:19;;;;;;;7.10;1.50;;;13.50;74.60;;;;;;4990068;28;20422;-74
2023/10/31 11:32:49;;;;;;;2.20;1.17;;;13.60;73.90;;;;;;4989957;28;20191;-75
2023/10/31 11:35:17;;;;;;;6.77;2.03;;;13.70;74.20;;;;;;4988852;28;20422;-75
2023/10/31 11:37:43;;;;;;;3.50;1.50;;;13.60;73.70;;;;;;4988788;28;20441;-75
2023/10/31 11:40:18;;;;;;;2.87;1.40;;;13.70;74.20;;;;;;4987604;28;20940;-76
2023/10/31 11:42:47;;;;;;;2.23;1.10;;;13.70;73.50;;;;;;4992184;28;21079;-74
2023/10/31 11:45:27;;;;;;;2.20;1.43;;;13.70;73.60;;;;;;4991474;28;20422;-75
2023/10/31 11:47:53;;;;;;;3.20;1.87;;;13.80;73.60;;;;;;4993836;28;20472;-75
2023/10/31 11:50:22;;;;;;;4.27;1.40;;;13.80;73.60;;;;;;4995521;28;20433;-75
2023/10/31 11:53:14;;;;;;;3.07;1.50;;;13.70;73.60;;;;;;4991919;28;20191;-75
2023/10/31 11:55:47;;;;;;;3.50;1.50;;;13.80;72.70;;;;;;4985490;28;20496;-75
2023/10/31 11:58:17;;;;;;;5.07;1.87;;;13.90;72.90;;;;;;4991640;28;20425;-76
2023/10/31 12:00:48;;;;;;;4.67;1.50;;;13.90;72.90;;;;;;4990920;28;20516;-74
2023/10/31 12:03:17;;;;;;;6.50;2.10;;;13.90;73.20;;;;;;4990389;28;20442;-72
2023/10/31 12:05:57;;;;;;;5.37;1.97;;;13.90;73.30;;;;;;4989473;28;20550;-75
2023/10/31 12:08:37;;;;;;;4.03;1.60;;;13.90;73.50;;;;;;4990733;28;20504;-74
2023/10/31 12:11:07;;;;;;;2.47;1.20;;;13.80;72.70;;;;;;4992927;28;20517;-74
2023/10/31 12:13:34;;;;;;;3.73;1.37;;;13.80;73.30;;;;;;4996387;28;20414;-72
2023/10/31 12:16:02;;;;;;;3.07;1.10;;;13.90;72.90;;;;;;4994324;28;20501;-75
2023/10/31 12:18:28;;;;;;;4.07;1.20;;;14.00;72.90;;;;;;4993948;28;20457;-76
2023/10/31 12:20:56;;;;;;;3.60;1.10;;;14.00;73.20;;;;;;4988923;28;20487;-73
2023/10/31 12:23:21;;;;;;;4.10;1.50;;;14.10;72.70;;;;;;5010552;28;21012;-75
2023/10/31 12:25:53;;;;;;;3.80;1.20;;;14.20;72.30;;;;;;4993258;28;20482;-75
2023/10/31 12:28:23;;;;;;;3.67;1.40;;;14.20;72.30;;;;;;4983500;28;20234;-74
2023/10/31 12:30:54;;;;;;;2.93;1.13;;;14.00;73.70;;;;;;4975536;28;20513;-75
2023/10/31 12:33:21;;;;;;;3.30;1.60;;;13.70;75.40;;;;;;4975454;28;20481;-76
2023/10/31 12:35:48;;;;;;;1.30;1.10;;;13.50;77.00;;;;;;4974664;28;20514;-76
2023/10/31 12:38:15;;;;;;;6.40;1.30;;;13.10;78.70;;;;;;4980945;28;20477;-77
2023/10/31 12:40:43;;;;;;;3.13;1.23;;;12.90;80.50;;;;;;4975548;28;20423;-74
2023/10/31 12:43:09;;;;;;;4.20;1.37;;;12.70;81.10;;;;;;4976994;28;20442;-75
2023/10/31 12:45:35;;;;;;;4.23;1.30;;;12.60;81.70;;;;;;4975655;28;20928;-76